createdAt,value
2018-09-08T00:00:32.714Z,93.10
2018-09-08T00:03:02.965Z,93.10
2018-09-08T00:05:33.127Z,93.40
2018-09-08T00:08:02.671Z,93.20
2018-09-08T00:10:31.289Z,92.70
2018-09-08T00:13:00.059Z,92.30
2018-09-08T00:15:34.924Z,92.30
2018-09-08T00:18:09.617Z,92.70
2018-09-08T00:20:43.468Z,92.80
2018-09-08T00:23:17.448Z,92.80
2018-09-08T00:25:51.269Z,92.80
2018-09-08T00:28:32.656Z,92.90
2018-09-08T00:31:01.396Z,93.00
2018-09-08T00:33:30.920Z,93.20
2018-09-08T00:35:59.457Z,93.30
2018-09-08T00:38:28.016Z,93.40
2018-09-08T00:40:56.507Z,93.30
2018-09-08T00:43:25.160Z,93.30
2018-09-08T00:45:53.700Z,93.30
2018-09-08T00:48:23.828Z,93.30
2018-09-08T00:50:52.384Z,93.30
2018-09-08T00:53:20.908Z,93.30
2018-09-08T00:55:49.448Z,93.40
2018-09-08T00:58:17.993Z,93.40
2018-09-08T01:00:46.496Z,93.40
2018-09-08T01:03:15.056Z,93.50
2018-09-08T01:05:43.584Z,93.40
2018-09-08T01:08:12.084Z,93.50
2018-09-08T01:10:41.751Z,93.50
2018-09-08T01:13:10.246Z,93.40
2018-09-08T01:15:39.236Z,93.50
2018-09-08T01:18:08.136Z,93.40
2018-09-08T01:20:39.947Z,93.50
2018-09-08T01:23:09.661Z,93.40
2018-09-08T01:25:38.637Z,93.40
2018-09-08T01:28:07.112Z,93.50
2018-09-08T01:30:36.377Z,93.60
2018-09-08T01:33:05.416Z,93.50
2018-09-08T01:35:34.518Z,93.40
2018-09-08T01:38:03.047Z,93.40
2018-09-08T01:40:31.557Z,93.30
2018-09-08T01:43:00.882Z,92.90
2018-09-08T01:45:29.435Z,93.10
2018-09-08T01:47:57.877Z,93.40
2018-09-08T01:50:26.703Z,93.50
2018-09-08T01:52:55.195Z,93.50
2018-09-08T01:55:23.658Z,93.50
2018-09-08T01:57:53.689Z,93.50
2018-09-08T02:00:22.180Z,93.30
2018-09-08T02:02:50.737Z,93.20
2018-09-08T02:05:19.177Z,93.20
2018-09-08T02:07:47.952Z,93.10
2018-09-08T02:10:16.420Z,93.10
2018-09-08T02:12:44.858Z,93.10
2018-09-08T02:15:14.507Z,93.10
2018-09-08T02:17:42.938Z,93.10
2018-09-08T02:20:11.393Z,93.00
2018-09-08T02:22:39.868Z,92.60
2018-09-08T02:25:09.023Z,92.80
2018-09-08T02:27:37.791Z,93.00
2018-09-08T02:30:10.125Z,92.80
2018-09-08T02:32:38.579Z,92.80
2018-09-08T02:35:07.133Z,92.70
2018-09-08T02:37:36.049Z,92.60
2018-09-08T02:40:04.569Z,92.60
2018-09-08T02:42:32.981Z,92.60
2018-09-08T02:45:01.422Z,92.80
2018-09-08T02:47:30.049Z,93.00
2018-09-08T02:50:10.522Z,92.80
2018-09-08T02:52:38.165Z,92.70
2018-09-08T02:55:06.201Z,92.40
2018-09-08T02:57:34.530Z,92.30
2018-09-08T03:00:01.962Z,92.30
2018-09-08T03:02:29.905Z,92.40
2018-09-08T03:04:57.238Z,92.40
2018-09-08T03:07:24.550Z,92.50
2018-09-08T03:09:51.957Z,92.60
2018-09-08T03:12:19.265Z,92.70
2018-09-08T03:14:46.573Z,92.50
2018-09-08T03:17:13.894Z,92.50
2018-09-08T03:19:41.248Z,92.40
2018-09-08T03:22:08.577Z,92.30
2018-09-08T03:24:35.881Z,92.20
2018-09-08T03:27:03.217Z,92.40
2018-09-08T03:29:30.517Z,92.40
2018-09-08T03:31:57.845Z,92.40
2018-09-08T03:34:25.201Z,92.10
2018-09-08T03:36:52.692Z,91.90
2018-09-08T03:39:20.007Z,92.10
2018-09-08T03:41:47.358Z,92.50
2018-09-08T03:44:15.473Z,92.60
2018-09-08T03:46:42.813Z,92.40
2018-09-08T03:49:10.161Z,92.60
2018-09-08T03:51:37.621Z,92.60
2018-09-08T03:54:06.004Z,92.70
2018-09-08T03:56:33.325Z,93.10
2018-09-08T03:59:00.901Z,93.00
2018-09-08T04:01:28.411Z,92.60
2018-09-08T04:03:56.977Z,92.70
2018-09-08T04:06:25.566Z,93.00
2018-09-08T04:08:54.322Z,93.20
2018-09-08T04:11:23.099Z,92.60
2018-09-08T04:13:51.518Z,92.40
2018-09-08T04:16:19.963Z,92.30
2018-09-08T04:18:48.493Z,92.10
2018-09-08T04:21:17.391Z,92.10
2018-09-08T04:23:45.858Z,92.10
2018-09-08T04:26:14.334Z,92.00
2018-09-08T04:28:42.785Z,92.10
2018-09-08T04:31:11.254Z,92.10
2018-09-08T04:33:39.690Z,92.10
2018-09-08T04:36:08.413Z,92.10
2018-09-08T04:38:36.893Z,92.20
2018-09-08T04:41:05.565Z,92.40
2018-09-08T04:43:33.947Z,92.20
2018-09-08T04:46:02.427Z,92.30
2018-09-08T04:48:31.411Z,92.30
2018-09-08T04:51:00.810Z,92.40
2018-09-08T04:53:29.245Z,92.20
2018-09-08T04:55:57.689Z,92.20
2018-09-08T04:58:26.113Z,92.50
2018-09-08T05:00:54.829Z,92.50
2018-09-08T05:03:23.237Z,92.50
2018-09-08T05:05:51.705Z,92.30
2018-09-08T05:08:20.193Z,92.20
2018-09-08T05:10:48.623Z,92.30
2018-09-08T05:13:17.095Z,92.40
2018-09-08T05:15:45.534Z,92.60
2018-09-08T05:18:13.960Z,92.60
2018-09-08T05:20:42.406Z,92.50
2018-09-08T05:23:10.872Z,92.50
2018-09-08T05:25:39.419Z,92.50
2018-09-08T05:28:08.186Z,92.60
2018-09-08T05:30:36.602Z,92.60
2018-09-08T05:33:05.214Z,92.50
2018-09-08T05:35:33.653Z,92.40
2018-09-08T05:38:02.107Z,91.90
2018-09-08T05:40:30.864Z,92.40
2018-09-08T05:42:59.364Z,92.30
2018-09-08T05:45:27.810Z,92.30
2018-09-08T05:47:56.569Z,92.50
2018-09-08T05:50:25.138Z,92.40
2018-09-08T05:52:53.563Z,92.10
2018-09-08T05:55:22.041Z,92.20
2018-09-08T05:57:50.466Z,92.10
2018-09-08T06:00:18.909Z,91.90
2018-09-08T06:02:47.365Z,91.70
2018-09-08T06:05:15.772Z,91.70
2018-09-08T06:07:44.221Z,91.50
2018-09-08T06:10:12.716Z,91.40
2018-09-08T06:12:41.110Z,91.60
2018-09-08T06:15:09.557Z,92.00
2018-09-08T06:17:38.008Z,92.10
2018-09-08T06:20:06.489Z,91.60
2018-09-08T06:22:34.921Z,91.70
2018-09-08T06:25:03.345Z,91.90
2018-09-08T06:27:31.806Z,91.90
2018-09-08T06:30:00.240Z,92.10
2018-09-08T06:32:28.698Z,92.30
2018-09-08T06:34:57.125Z,92.00
2018-09-08T06:37:25.525Z,91.70
2018-09-08T06:39:54.038Z,91.50
2018-09-08T06:42:22.480Z,91.40
2018-09-08T06:44:51.367Z,91.30
2018-09-08T06:47:19.804Z,91.60
2018-09-08T06:49:48.259Z,91.80
2018-09-08T06:52:16.779Z,91.50
2018-09-08T06:54:45.188Z,91.40
2018-09-08T06:57:13.617Z,90.90
2018-09-08T06:59:42.058Z,91.20
2018-09-08T07:02:10.511Z,91.50
2018-09-08T07:04:38.957Z,88.10
2018-09-08T07:07:11.508Z,89.20
2018-09-08T07:09:41.421Z,90.80
2018-09-08T07:12:10.408Z,90.50
2018-09-08T07:14:38.958Z,90.20
2018-09-08T07:17:07.401Z,84.10
2018-09-08T07:19:35.877Z,85.00
2018-09-08T07:22:04.573Z,84.40
2018-09-08T07:24:33.019Z,78.00
2018-09-08T07:27:01.450Z,80.10
2018-09-08T07:29:29.901Z,78.60
2018-09-08T07:31:58.337Z,79.20
2018-09-08T07:34:26.798Z,81.10
2018-09-08T07:36:55.246Z,80.60
2018-09-08T07:39:23.797Z,76.80
2018-09-08T07:41:52.253Z,78.60
2018-09-08T07:44:20.696Z,77.20
2018-09-08T07:46:49.173Z,76.90
2018-09-08T07:49:17.634Z,75.20
2018-09-08T07:51:46.061Z,76.20
2018-09-08T07:54:14.522Z,76.50
2018-09-08T07:56:42.974Z,72.90
2018-09-08T07:59:11.437Z,71.90
2018-09-08T08:01:39.894Z,69.10
2018-09-08T08:04:08.340Z,71.70
2018-09-08T08:06:36.804Z,71.00
2018-09-08T08:09:07.380Z,69.80
2018-09-08T08:11:36.321Z,67.30
2018-09-08T08:14:04.773Z,68.40
2018-09-08T08:16:33.279Z,65.70
2018-09-08T08:19:02.041Z,66.30
2018-09-08T08:21:30.492Z,68.20
2018-09-08T08:23:58.926Z,68.60
2018-09-08T08:26:27.350Z,69.60
2018-09-08T08:28:55.833Z,68.20
2018-09-08T08:31:24.285Z,65.30
2018-09-08T08:33:53.114Z,65.80
2018-09-08T08:36:21.610Z,65.30
2018-09-08T08:38:50.061Z,65.40
2018-09-08T08:41:18.474Z,64.00
2018-09-08T08:43:46.925Z,64.00
2018-09-08T08:46:15.370Z,64.40
2018-09-08T08:48:43.904Z,65.10
2018-09-08T08:51:23.692Z,63.40
2018-09-08T08:54:03.612Z,63.50
2018-09-08T08:56:32.056Z,63.40
2018-09-08T08:59:00.500Z,63.40
2018-09-08T09:01:28.974Z,62.70
2018-09-08T09:03:57.406Z,64.30
2018-09-08T09:06:25.893Z,62.50
2018-09-08T09:08:54.334Z,63.20
2018-09-08T09:11:22.774Z,63.50
2018-09-08T09:13:51.221Z,61.30
2018-09-08T09:16:19.663Z,57.00
2018-09-08T09:18:59.852Z,60.30
2018-09-08T09:21:39.212Z,59.60
2018-09-08T09:24:23.715Z,58.20
2018-09-08T09:26:51.759Z,59.20
2018-09-08T09:29:20.656Z,59.50
2018-09-08T09:31:49.301Z,56.40
2018-09-08T09:34:17.906Z,55.70
2018-09-08T09:36:46.354Z,56.60
2018-09-08T09:39:15.558Z,57.10
2018-09-08T09:41:44.005Z,56.50
2018-09-08T09:44:12.924Z,57.10
2018-09-08T09:46:41.820Z,55.90
2018-09-08T09:49:10.270Z,56.80
2018-09-08T09:51:38.713Z,56.50
2018-09-08T09:54:07.162Z,55.20
2018-09-08T09:56:35.594Z,53.40
2018-09-08T09:59:04.433Z,56.10
2018-09-08T10:01:38.326Z,55.20
2018-09-08T10:04:06.809Z,56.10
2018-09-08T10:06:35.304Z,56.70
2018-09-08T10:09:04.527Z,57.40
2018-09-08T10:11:33.080Z,55.50
2018-09-08T10:14:01.534Z,57.40
2018-09-08T10:16:30.005Z,58.70
2018-09-08T10:18:58.635Z,59.10
2018-09-08T10:21:27.088Z,59.90
2018-09-08T10:24:05.148Z,59.60
2018-09-08T10:26:24.048Z,59.80
2018-09-08T10:28:52.505Z,59.40
2018-09-08T10:31:20.954Z,59.90
2018-09-08T10:33:49.420Z,58.70
2018-09-08T10:36:17.893Z,59.10
2018-09-08T10:38:46.348Z,59.30
2018-09-08T10:41:14.806Z,58.80
2018-09-08T10:43:43.277Z,58.60
2018-09-08T10:46:11.733Z,58.30
2018-09-08T10:48:40.184Z,58.30
2018-09-08T10:52:19.233Z,57.10
2018-09-08T10:54:48.006Z,55.30
2018-09-08T10:57:16.713Z,56.30
2018-09-08T10:59:45.191Z,56.70
2018-09-08T11:02:14.099Z,55.90
2018-09-08T11:04:42.230Z,56.80
2018-09-08T11:07:11.258Z,55.60
2018-09-08T11:09:39.703Z,57.10
2018-09-08T11:12:08.197Z,55.80
2018-09-08T11:14:36.788Z,55.70
2018-09-08T11:17:05.320Z,55.30
2018-09-08T11:19:33.764Z,55.40
2018-09-08T11:22:02.237Z,55.30
2018-09-08T11:24:31.225Z,52.80
2018-09-08T11:26:59.719Z,54.10
2018-09-08T11:29:28.184Z,54.10
2018-09-08T11:31:56.627Z,55.30
2018-09-08T11:34:25.054Z,50.90
2018-09-08T11:36:53.503Z,50.80
2018-09-08T11:39:21.919Z,51.60
2018-09-08T11:41:50.367Z,52.80
2018-09-08T11:44:18.817Z,48.20
2018-09-08T11:46:47.258Z,49.20
2018-09-08T11:49:15.701Z,49.00
2018-09-08T11:51:44.191Z,49.20
2018-09-08T11:54:12.819Z,48.20
2018-09-08T11:56:41.250Z,48.60
2018-09-08T11:59:09.717Z,48.30
2018-09-08T12:01:38.153Z,47.40
2018-09-08T12:04:06.965Z,46.50
2018-09-08T12:06:35.402Z,48.20
2018-09-08T12:09:05.074Z,47.70
2018-09-08T12:11:33.554Z,47.80
2018-09-08T12:14:02.028Z,47.50
2018-09-08T12:16:30.467Z,45.80
2018-09-08T12:18:58.982Z,47.40
2018-09-08T12:21:27.398Z,45.80
2018-09-08T12:23:55.869Z,46.10
2018-09-08T12:26:24.321Z,45.90
2018-09-08T12:28:52.749Z,46.30
2018-09-08T12:31:21.237Z,45.80
2018-09-08T12:33:49.684Z,45.10
2018-09-08T12:36:18.129Z,45.30
2018-09-08T12:38:46.642Z,45.10
2018-09-08T12:41:15.034Z,44.60
2018-09-08T12:43:43.505Z,43.00
2018-09-08T12:46:11.944Z,44.00
2018-09-08T12:48:40.417Z,44.20
2018-09-08T12:51:09.204Z,43.00
2018-09-08T12:53:37.691Z,44.40
2018-09-08T12:56:06.572Z,45.10
2018-09-08T12:58:34.997Z,44.50
2018-09-08T13:01:03.435Z,45.00
2018-09-08T13:03:31.900Z,45.90
2018-09-08T13:06:00.349Z,46.00
2018-09-08T13:08:28.866Z,45.50
2018-09-08T13:10:57.337Z,45.00
2018-09-08T13:13:25.765Z,44.30
2018-09-08T13:15:54.228Z,45.00
2018-09-08T13:18:22.654Z,44.30
2018-09-08T13:20:51.228Z,44.00
2018-09-08T13:23:20.275Z,45.50
2018-09-08T13:25:48.729Z,43.20
2018-09-08T13:28:17.318Z,44.00
2018-09-08T13:30:45.780Z,43.80
2018-09-08T13:33:14.254Z,43.10
2018-09-08T13:35:42.694Z,43.30
2018-09-08T13:38:11.153Z,44.10
2018-09-08T13:40:39.611Z,43.30
2018-09-08T13:43:08.056Z,42.10
2018-09-08T13:45:36.499Z,44.10
2018-09-08T13:48:04.994Z,42.70
2018-09-08T13:50:33.434Z,44.00
2018-09-08T13:53:01.870Z,41.50
2018-09-08T13:55:30.286Z,42.90
2018-09-08T13:57:58.839Z,43.40
2018-09-08T14:00:27.274Z,43.70
2018-09-08T14:02:55.702Z,43.90
2018-09-08T14:05:24.155Z,43.70
2018-09-08T14:07:56.039Z,42.50
2018-09-08T14:10:24.513Z,42.50
2018-09-08T14:12:52.953Z,41.80
2018-09-08T14:15:21.388Z,41.80
2018-09-08T14:17:49.874Z,42.30
2018-09-08T14:20:18.298Z,41.10
2018-09-08T14:22:46.788Z,40.50
2018-09-08T14:25:15.229Z,42.20
2018-09-08T14:27:43.650Z,42.70
2018-09-08T14:30:12.083Z,42.10
2018-09-08T14:32:40.528Z,41.90
2018-09-08T14:35:09.003Z,41.50
2018-09-08T14:37:37.447Z,42.10
2018-09-08T14:40:06.197Z,41.20
2018-09-08T14:42:34.621Z,41.70
2018-09-08T14:45:03.358Z,43.00
2018-09-08T14:47:31.875Z,43.00
2018-09-08T14:50:00.244Z,41.60
2018-09-08T14:52:28.985Z,42.40
2018-09-08T14:54:57.729Z,42.70
2018-09-08T14:57:26.170Z,44.10
2018-09-08T14:59:54.631Z,43.10
2018-09-08T15:02:23.046Z,45.30
2018-09-08T15:04:51.483Z,44.40
2018-09-08T15:07:19.941Z,44.10
2018-09-08T15:09:48.389Z,45.30
2018-09-08T15:12:16.865Z,46.50
2018-09-08T15:14:45.333Z,46.30
2018-09-08T15:17:13.789Z,46.70
2018-09-08T15:19:42.233Z,47.90
2018-09-08T15:22:10.676Z,47.10
2018-09-08T15:24:39.127Z,46.90
2018-09-08T15:27:07.538Z,45.10
2018-09-08T15:29:35.981Z,46.40
2018-09-08T15:32:04.481Z,45.80
2018-09-08T15:34:32.894Z,44.80
2018-09-08T15:37:01.420Z,46.30
2018-09-08T15:39:29.848Z,48.80
2018-09-08T15:41:58.302Z,45.80
2018-09-08T15:44:26.748Z,44.70
2018-09-08T15:46:55.186Z,45.60
2018-09-08T15:49:23.629Z,44.40
2018-09-08T15:51:52.075Z,45.40
2018-09-08T15:54:20.529Z,44.60
2018-09-08T15:56:48.957Z,43.60
2018-09-08T15:59:17.425Z,42.80
2018-09-08T16:01:45.892Z,43.60
2018-09-08T16:04:14.379Z,45.50
2018-09-08T16:06:42.899Z,44.60
2018-09-08T16:09:11.374Z,44.00
2018-09-08T16:11:39.795Z,45.20
2018-09-08T16:14:08.274Z,47.00
2018-09-08T16:16:36.721Z,46.10
2018-09-08T16:19:05.486Z,47.10
2018-09-08T16:21:33.942Z,47.40
2018-09-08T16:24:02.392Z,46.80
2018-09-08T16:26:30.876Z,46.70
2018-09-08T16:28:59.318Z,46.80
2018-09-08T16:31:27.738Z,48.20
2018-09-08T16:33:56.185Z,49.30
2018-09-08T16:36:24.625Z,48.40
2018-09-08T16:38:53.093Z,49.70
2018-09-08T16:41:21.540Z,49.40
2018-09-08T16:43:49.982Z,50.70
2018-09-08T16:46:18.446Z,50.10
2018-09-08T16:48:46.941Z,49.60
2018-09-08T16:51:15.395Z,51.20
2018-09-08T16:53:44.173Z,51.50
2018-09-08T16:56:12.877Z,51.80
2018-09-08T16:58:41.317Z,52.60
2018-09-08T17:01:09.738Z,53.20
2018-09-08T17:03:38.217Z,53.90
2018-09-08T17:06:06.812Z,54.50
2018-09-08T17:08:35.259Z,55.40
2018-09-08T17:11:04.069Z,55.90
2018-09-08T17:13:32.517Z,56.50
2018-09-08T17:16:01.006Z,56.90
2018-09-08T17:18:30.095Z,57.30
2018-09-08T17:20:58.553Z,57.20
2018-09-08T17:23:26.977Z,57.20
2018-09-08T17:25:55.421Z,57.40
2018-09-08T17:28:23.976Z,57.60
2018-09-08T17:30:52.550Z,57.60
2018-09-08T17:33:20.988Z,58.10
2018-09-08T17:35:49.681Z,58.50
2018-09-08T17:38:18.095Z,58.60
2018-09-08T17:40:46.545Z,58.60
2018-09-08T17:43:14.990Z,58.70
2018-09-08T17:45:43.462Z,58.90
2018-09-08T17:48:11.884Z,58.60
2018-09-08T17:50:40.337Z,59.20
2018-09-08T17:53:08.815Z,60.00
2018-09-08T17:55:37.258Z,59.80
2018-09-08T17:58:05.990Z,59.70
2018-09-08T18:00:34.436Z,59.40
2018-09-08T18:03:03.205Z,59.40
2018-09-08T18:05:31.658Z,60.00
2018-09-08T18:08:00.118Z,60.00
2018-09-08T18:10:28.574Z,60.20
2018-09-08T18:12:57.034Z,60.60
2018-09-08T18:15:25.493Z,61.50
2018-09-08T18:17:53.966Z,62.60
2018-09-08T18:20:22.398Z,62.90
2018-09-08T18:22:50.852Z,64.70
2018-09-08T18:25:19.265Z,62.70
2018-09-08T18:27:47.675Z,62.90
2018-09-08T18:30:16.124Z,64.20
2018-09-08T18:32:44.816Z,65.00
2018-09-08T18:35:13.241Z,65.20
2018-09-08T18:37:41.682Z,65.80
2018-09-08T18:40:10.160Z,65.70
2018-09-08T18:42:38.613Z,65.60
2018-09-08T18:45:07.069Z,65.60
2018-09-08T18:47:35.544Z,65.40
2018-09-08T18:50:04.036Z,64.20
2018-09-08T18:52:32.481Z,64.80
2018-09-08T18:55:00.929Z,66.20
2018-09-08T18:57:29.382Z,66.40
2018-09-08T18:59:57.826Z,65.90
2018-09-08T19:02:26.268Z,66.70
2018-09-08T19:04:54.703Z,67.30
2018-09-08T19:07:23.161Z,67.10
2018-09-08T19:09:57.001Z,66.80
2018-09-08T19:12:25.457Z,67.50
2018-09-08T19:14:59.185Z,67.20
2018-09-08T19:17:27.988Z,66.60
2018-09-08T19:20:02.013Z,66.70
2018-09-08T19:22:30.593Z,67.60
2018-09-08T19:24:59.019Z,68.00
2018-09-08T19:27:27.472Z,68.60
2018-09-08T19:30:00.375Z,68.60
2018-09-08T19:32:29.334Z,68.60
2018-09-08T19:35:03.249Z,69.10
2018-09-08T19:37:35.097Z,68.90
2018-09-08T19:40:03.640Z,69.10
2018-09-08T19:42:32.569Z,70.30
2018-09-08T19:45:01.008Z,70.00
2018-09-08T19:47:34.726Z,68.50
2018-09-08T19:50:03.176Z,69.00
2018-09-08T19:52:37.077Z,68.70
2018-09-08T19:55:05.517Z,69.20
2018-09-08T19:57:39.415Z,70.10
2018-09-08T20:00:08.067Z,70.20
2018-09-08T20:02:36.517Z,70.00
2018-09-08T20:05:04.993Z,70.20
2018-09-08T20:07:33.457Z,69.70
2018-09-08T20:10:01.903Z,70.30
2018-09-08T20:12:30.331Z,70.30
2018-09-08T20:14:58.758Z,70.30
2018-09-08T20:17:27.178Z,70.10
2018-09-08T20:19:55.678Z,69.70
2018-09-08T20:22:24.063Z,70.40
2018-09-08T20:24:52.517Z,71.50
2018-09-08T20:27:21.090Z,71.40
2018-09-08T20:29:49.816Z,71.30
2018-09-08T20:32:18.284Z,71.80
2018-09-08T20:34:46.730Z,72.10
2018-09-08T20:37:15.193Z,72.00
2018-09-08T20:39:43.622Z,71.80
2018-09-08T20:42:12.069Z,71.80
2018-09-08T20:44:40.507Z,71.60
2018-09-08T20:47:08.936Z,71.50
2018-09-08T20:49:37.361Z,72.60
2018-09-08T20:52:06.104Z,74.10
2018-09-08T20:54:34.574Z,73.60
2018-09-08T20:57:03.354Z,73.20
2018-09-08T20:59:31.768Z,73.30
2018-09-08T21:02:00.205Z,73.40
2018-09-08T21:04:28.669Z,73.40
2018-09-08T21:06:57.106Z,72.40
2018-09-08T21:09:25.587Z,72.90
2018-09-08T21:11:54.025Z,73.80
2018-09-08T21:14:22.464Z,73.50
2018-09-08T21:16:51.270Z,73.50
2018-09-08T21:19:20.057Z,73.10
2018-09-08T21:21:48.917Z,73.90
2018-09-08T21:24:17.478Z,73.70
2018-09-08T21:26:46.223Z,74.10
2018-09-08T21:29:14.702Z,74.60
2018-09-08T21:31:43.126Z,74.50
2018-09-08T21:34:11.625Z,74.10
2018-09-08T21:36:40.090Z,74.10
2018-09-08T21:39:09.281Z,73.30
2018-09-08T21:41:37.795Z,72.90
2018-09-08T21:44:06.442Z,73.30
2018-09-08T21:46:35.150Z,73.80
2018-09-08T21:49:03.839Z,74.50
2018-09-08T21:51:32.281Z,74.70
2018-09-08T21:54:00.741Z,75.10
2018-09-08T21:56:29.182Z,75.60
2018-09-08T21:58:57.641Z,75.40
2018-09-08T22:01:27.318Z,75.10
2018-09-08T22:03:56.426Z,74.80
2018-09-08T22:06:25.735Z,75.00
2018-09-08T22:08:54.176Z,74.70
2018-09-08T22:11:22.633Z,75.80
2018-09-08T22:13:51.080Z,75.10
2018-09-08T22:16:19.510Z,75.80
2018-09-08T22:18:47.976Z,76.60
2018-09-08T22:21:16.388Z,76.80
2018-09-08T22:23:44.829Z,77.00
2018-09-08T22:26:13.281Z,76.50
2018-09-08T22:28:41.728Z,76.20
2018-09-08T22:31:10.200Z,76.60
2018-09-08T22:33:38.645Z,76.90
2018-09-08T22:36:07.109Z,77.10
2018-09-08T22:38:35.666Z,77.10
2018-09-08T22:41:04.089Z,77.10
2018-09-08T22:43:32.521Z,77.10
2018-09-08T22:46:00.965Z,77.20
2018-09-08T22:48:29.429Z,77.90
2018-09-08T22:50:57.864Z,77.50
2018-09-08T22:53:26.283Z,77.90
2018-09-08T22:55:54.710Z,77.80
2018-09-08T22:58:23.141Z,78.40
2018-09-08T23:00:51.613Z,78.40
2018-09-08T23:03:20.054Z,78.10
2018-09-08T23:05:48.457Z,76.70
2018-09-08T23:08:16.918Z,77.20
2018-09-08T23:10:45.342Z,77.50
2018-09-08T23:13:13.830Z,76.40
2018-09-08T23:15:42.560Z,77.40
2018-09-08T23:18:10.978Z,77.60
2018-09-08T23:20:39.429Z,77.80
2018-09-08T23:23:07.925Z,77.70
2018-09-08T23:25:36.392Z,77.70
2018-09-08T23:28:04.841Z,77.80
2018-09-08T23:30:33.681Z,77.60
2018-09-08T23:33:02.137Z,78.20
2018-09-08T23:35:30.562Z,78.30
2018-09-08T23:37:59.050Z,78.30
2018-09-08T23:40:27.476Z,78.70
2018-09-08T23:42:55.915Z,78.90
2018-09-08T23:45:24.366Z,79.00
2018-09-08T23:47:52.828Z,78.80
2018-09-08T23:50:21.284Z,78.60
2018-09-08T23:52:49.740Z,79.20
2018-09-08T23:55:18.173Z,79.60
2018-09-08T23:57:46.629Z,79.70
